Time;durP1;ratioP1;P1;durP2;ratioP2;P2;SDS_P1;SDS_P2;PMS_P1;PMS_P2;Temp;Humidity;BMP_temperature;BMP_pressure;BME280_temperature;BME280_humidity;BME280_pressure;Samples;Min_cycle;Max_cycle;Signal;HPM_P1;HPM_P2
2023/06/11 00:02:21;;;;;;;0.65;0.65;;;21.60;72.20;;;;;;6209157;23;20171;-82
2023/06/11 00:04:50;;;;;;;2.03;0.95;;;21.60;72.20;;;;;;6211905;23;20492;-82
2023/06/11 00:07:19;;;;;;;2.83;1.50;;;21.50;72.10;;;;;;6161275;23;20175;-82
2023/06/11 00:09:48;;;;;;;1.85;0.60;;;21.50;72.20;;;;;;6212758;23;20221;-82
2023/06/11 00:12:16;;;;;;;1.65;0.98;;;21.50;73.00;;;;;;6210134;23;20194;-81
2023/06/11 00:14:44;;;;;;;1.25;0.65;;;21.60;72.50;;;;;;6212293;23;20174;-82
2023/06/11 00:17:13;;;;;;;1.13;0.75;;;21.50;72.50;;;;;;6209555;23;20171;-81
2023/06/11 00:19:43;;;;;;;0.95;0.77;;;21.50;72.40;;;;;;6211971;23;20171;-82
2023/06/11 00:22:14;;;;;;;0.60;0.60;;;21.50;72.30;;;;;;6211278;23;20168;-82
2023/06/11 00:24:43;;;;;;;4.38;0.88;;;21.50;72.20;;;;;;6211904;23;20217;-83
2023/06/11 00:27:11;;;;;;;0.45;0.45;;;21.50;72.20;;;;;;6209288;23;20171;-83
2023/06/11 00:29:39;;;;;;;0.90;0.60;;;21.50;72.20;;;;;;6211888;23;20229;-82
2023/06/11 00:32:09;;;;;;;1.23;0.73;;;21.50;72.10;;;;;;6210972;23;20203;-82
2023/06/11 00:34:37;;;;;;;1.33;0.77;;;21.40;73.10;;;;;;6211628;23;20218;-81
2023/06/11 00:37:08;;;;;;;0.63;0.47;;;21.40;72.30;;;;;;6211748;23;20182;-83
2023/06/11 00:39:36;;;;;;;0.65;0.65;;;21.40;72.40;;;;;;6211403;23;20163;-81
2023/06/11 00:42:09;;;;;;;0.70;0.68;;;21.40;72.40;;;;;;6211491;23;20174;-81
2023/06/11 00:44:41;;;;;;;1.67;0.90;;;21.40;72.40;;;;;;6212195;23;20485;-81
2023/06/11 00:47:10;;;;;;;0.43;0.43;;;21.40;72.30;;;;;;6210673;23;20159;-81
2023/06/11 00:49:38;;;;;;;0.40;0.40;;;21.40;72.30;;;;;;6211876;23;20609;-82
2023/06/11 00:52:13;;;;;;;0.75;0.70;;;21.40;72.30;;;;;;6211516;23;20195;-82
2023/06/11 00:54:42;;;;;;;1.17;0.80;;;21.40;72.40;;;;;;6211459;23;20559;-82
2023/06/11 00:57:10;;;;;;;0.50;0.50;;;21.40;72.50;;;;;;6211077;23;20514;-82
2023/06/11 00:59:41;;;;;;;1.77;0.93;;;21.30;72.30;;;;;;6210092;23;20511;-82
2023/06/11 01:02:18;;;;;;;0.60;0.60;;;21.30;72.50;;;;;;6210427;23;20555;-82
2023/06/11 01:04:47;;;;;;;0.30;0.30;;;21.30;72.50;;;;;;6211504;23;20170;-82
2023/06/11 01:07:22;;;;;;;0.98;0.65;;;21.30;72.80;;;;;;6212086;23;20609;-82
2023/06/11 01:09:52;;;;;;;0.68;0.63;;;21.40;73.00;;;;;;6186160;23;20534;-82
2023/06/11 01:12:21;;;;;;;0.73;0.73;;;21.30;72.70;;;;;;6211683;23;20206;-82
2023/06/11 01:14:50;;;;;;;1.33;1.02;;;21.30;72.70;;;;;;6211569;23;20167;-82
2023/06/11 01:17:26;;;;;;;2.30;1.03;;;21.30;72.60;;;;;;6211539;23;20411;-82
2023/06/11 01:20:11;;;;;;;2.30;0.70;;;21.30;72.70;;;;;;6211900;23;20242;-80
2023/06/11 01:23:10;;;;;;;0.70;0.63;;;21.30;72.60;;;;;;6185287;23;20696;-81
2023/06/11 01:25:51;;;;;;;3.70;1.07;;;21.30;72.60;;;;;;6211201;23;20163;-81
2023/06/11 01:28:27;;;;;;;0.43;0.43;;;21.20;72.60;;;;;;6212512;23;20222;-81
2023/06/11 01:30:59;;;;;;;0.53;0.53;;;21.20;72.60;;;;;;6213260;23;20151;-80
2023/06/11 01:33:28;;;;;;;1.05;0.73;;;21.20;72.50;;;;;;6212546;23;20191;-84
2023/06/11 01:35:58;;;;;;;0.57;0.47;;;21.20;72.60;;;;;;6183392;23;20229;-83
2023/06/11 01:38:30;;;;;;;1.17;0.80;;;21.20;72.50;;;;;;6186783;23;20534;-83
2023/06/11 01:40:59;;;;;;;0.88;0.65;;;21.20;72.60;;;;;;6213081;23;20255;-80
2023/06/11 01:43:29;;;;;;;0.90;0.75;;;21.20;72.60;;;;;;6214166;23;20167;-82
2023/06/11 01:45:58;;;;;;;1.35;0.80;;;21.10;72.70;;;;;;6212284;23;20655;-80
2023/06/11 01:48:26;;;;;;;3.33;0.82;;;21.10;72.80;;;;;;6212695;23;20174;-84
2023/06/11 01:50:55;;;;;;;3.20;1.50;;;21.10;72.70;;;;;;6213711;23;20231;-80
2023/06/11 01:53:24;;;;;;;0.65;0.65;;;21.10;72.70;;;;;;6186984;23;20511;-84
2023/06/11 01:55:54;;;;;;;3.40;1.57;;;21.10;72.70;;;;;;6212508;23;20254;-81
2023/06/11 01:58:23;;;;;;;0.50;0.50;;;21.10;72.80;;;;;;6213296;23;20547;-81
2023/06/11 02:00:53;;;;;;;1.23;0.95;;;21.00;73.00;;;;;;6212666;23;20172;-81
2023/06/11 02:03:21;;;;;;;0.68;0.68;;;21.00;73.10;;;;;;6213043;23;20167;-81
2023/06/11 02:05:49;;;;;;;0.63;0.52;;;21.00;73.00;;;;;;6213246;23;20178;-81
2023/06/11 02:08:18;;;;;;;1.27;0.60;;;21.00;73.00;;;;;;6213990;23;20282;-81
2023/06/11 02:10:46;;;;;;;2.60;0.93;;;21.00;73.20;;;;;;6213798;23;20167;-81
2023/06/11 02:13:14;;;;;;;0.50;0.50;;;20.90;73.20;;;;;;6212240;23;20225;-81
2023/06/11 02:15:43;;;;;;;1.10;0.87;;;20.90;73.30;;;;;;6210703;23;20525;-82
2023/06/11 02:18:13;;;;;;;1.03;0.63;;;20.90;73.20;;;;;;6212448;23;20174;-82
2023/06/11 02:20:41;;;;;;;0.90;0.77;;;20.90;73.20;;;;;;6213062;23;20175;-82
2023/06/11 02:23:09;;;;;;;1.40;0.97;;;20.90;73.20;;;;;;6213420;23;20468;-82
2023/06/11 02:25:37;;;;;;;1.83;0.70;;;20.90;73.20;;;;;;6213652;23;20175;-82
2023/06/11 02:28:06;;;;;;;1.37;0.40;;;20.90;73.20;;;;;;6211345;23;20520;-81
2023/06/11 02:30:34;;;;;;;1.00;0.90;;;20.90;73.20;;;;;;6211543;23;20164;-81
2023/06/11 02:33:03;;;;;;;4.20;2.30;;;20.90;73.70;;;;;;6211410;23;20246;-83
2023/06/11 02:35:33;;;;;;;0.57;0.50;;;20.80;74.20;;;;;;6212947;23;20249;-82
2023/06/11 02:38:01;;;;;;;3.25;1.42;;;20.80;74.40;;;;;;6213551;23;20168;-81
2023/06/11 02:40:29;;;;;;;1.48;1.17;;;20.80;74.90;;;;;;6213169;23;20687;-82
2023/06/11 02:42:58;;;;;;;1.67;0.90;;;20.80;74.80;;;;;;6214153;23;20172;-81
2023/06/11 02:45:26;;;;;;;0.67;0.67;;;20.80;75.10;;;;;;6211561;23;20172;-81
2023/06/11 02:47:55;;;;;;;3.50;1.47;;;20.80;75.50;;;;;;6211713;23;20281;-83
2023/06/11 02:50:23;;;;;;;3.47;1.65;;;20.70;75.60;;;;;;6212137;23;20171;-81
2023/06/11 02:52:53;;;;;;;1.20;1.07;;;20.80;76.10;;;;;;6212690;23;20194;-82
2023/06/11 02:55:22;;;;;;;1.08;0.93;;;20.70;75.80;;;;;;6212229;23;20171;-82
2023/06/11 02:57:50;;;;;;;0.40;0.40;;;20.70;75.70;;;;;;6210268;23;20249;-83
2023/06/11 03:00:19;;;;;;;0.43;0.43;;;20.70;75.70;;;;;;6211701;23;20537;-82
2023/06/11 03:02:47;;;;;;;1.43;0.87;;;20.70;75.50;;;;;;6210253;23;20170;-84
2023/06/11 03:05:15;;;;;;;1.30;0.77;;;20.70;75.40;;;;;;6212196;23;20222;-81
2023/06/11 03:07:44;;;;;;;3.03;1.13;;;20.80;75.60;;;;;;6212365;23;20508;-83
2023/06/11 03:10:13;;;;;;;1.00;0.93;;;20.70;75.50;;;;;;6212239;23;20178;-83
2023/06/11 03:12:42;;;;;;;0.60;0.60;;;20.80;75.50;;;;;;6211496;23;20191;-83
2023/06/11 03:15:11;;;;;;;0.93;0.60;;;20.80;75.50;;;;;;6211755;23;20884;-82
2023/06/11 03:17:40;;;;;;;2.07;1.23;;;20.80;75.50;;;;;;6210226;23;20233;-82
2023/06/11 03:20:09;;;;;;;0.60;0.60;;;20.80;75.40;;;;;;6212053;23;20345;-83
2023/06/11 03:22:38;;;;;;;0.70;0.70;;;20.80;75.40;;;;;;6212682;23;20254;-81
2023/06/11 03:25:07;;;;;;;0.50;0.50;;;20.80;75.40;;;;;;6210292;23;20174;-82
2023/06/11 03:27:38;;;;;;;0.87;0.77;;;20.90;75.50;;;;;;6212030;23;20225;-81
2023/06/11 03:30:11;;;;;;;0.77;0.70;;;20.90;75.40;;;;;;6212919;23;20199;-83
2023/06/11 03:32:40;;;;;;;1.23;0.93;;;20.90;75.20;;;;;;6185511;23;20167;-82
2023/06/11 03:35:08;;;;;;;0.65;0.65;;;21.00;75.30;;;;;;6161429;23;20509;-82
2023/06/11 03:37:37;;;;;;;0.65;0.55;;;21.00;75.10;;;;;;6212769;23;20171;-83
2023/06/11 03:40:07;;;;;;;1.40;1.10;;;21.10;75.80;;;;;;6209978;23;20210;-83
2023/06/11 03:42:37;;;;;;;0.50;0.40;;;21.10;75.50;;;;;;6209419;23;20178;-82
2023/06/11 03:45:06;;;;;;;2.22;0.95;;;21.20;75.80;;;;;;6211526;23;20176;-83
2023/06/11 03:47:35;;;;;;;1.13;1.05;;;21.20;75.30;;;;;;6211481;23;20684;-83
2023/06/11 03:50:04;;;;;;;1.05;0.77;;;21.30;75.50;;;;;;6210854;23;20202;-83
2023/06/11 03:52:33;;;;;;;2.22;0.73;;;21.30;75.50;;;;;;6210636;23;20178;-83
2023/06/11 03:55:01;;;;;;;0.85;0.75;;;21.40;75.20;;;;;;6208773;23;20203;-82
2023/06/11 03:57:29;;;;;;;1.20;0.50;;;21.40;75.10;;;;;;6210282;23;20633;-82
2023/06/11 03:59:59;;;;;;;0.77;0.68;;;21.50;75.10;;;;;;6209455;23;20167;-83
2023/06/11 04:02:28;;;;;;;0.63;0.63;;;21.50;75.10;;;;;;6210809;23;20166;-84
2023/06/11 04:04:56;;;;;;;1.85;1.25;;;21.60;75.10;;;;;;6210658;23;20183;-82
2023/06/11 04:07:24;;;;;;;0.38;0.38;;;21.60;74.90;;;;;;6210775;23;20229;-81
2023/06/11 04:09:53;;;;;;;0.70;0.45;;;21.70;74.90;;;;;;6211097;23;20198;-83
2023/06/11 04:12:21;;;;;;;1.17;0.73;;;21.70;74.90;;;;;;6208738;23;20168;-83
2023/06/11 04:14:50;;;;;;;2.03;1.02;;;21.80;74.90;;;;;;6210692;23;20253;-84
2023/06/11 04:17:20;;;;;;;1.42;0.90;;;21.90;74.80;;;;;;6209995;23;20171;-81
2023/06/11 04:19:48;;;;;;;1.75;0.75;;;21.90;74.70;;;;;;6209857;23;20159;-83
2023/06/11 04:22:17;;;;;;;0.40;0.40;;;22.00;74.90;;;;;;6210476;23;20167;-81
2023/06/11 04:24:45;;;;;;;1.75;1.05;;;22.00;74.90;;;;;;6209679;23;20174;-83
2023/06/11 04:27:13;;;;;;;1.73;0.93;;;22.10;75.50;;;;;;6211586;23;21026;-83
2023/06/11 04:29:44;;;;;;;1.25;1.15;;;22.10;75.50;;;;;;6211286;23;20202;-81
2023/06/11 04:32:20;;;;;;;3.13;1.45;;;22.20;75.40;;;;;;6209931;23;20849;-81
2023/06/11 04:34:51;;;;;;;1.42;1.33;;;22.20;75.80;;;;;;6211213;23;20245;-82
2023/06/11 04:37:19;;;;;;;1.52;1.10;;;22.30;75.60;;;;;;6209631;23;20195;-82
2023/06/11 04:39:48;;;;;;;1.23;0.98;;;22.40;75.40;;;;;;6183643;23;20175;-82
2023/06/11 04:42:17;;;;;;;1.75;1.23;;;22.40;75.40;;;;;;6210587;23;20167;-82
2023/06/11 04:44:47;;;;;;;1.48;1.38;;;22.50;75.20;;;;;;6211909;23;20631;-83
2023/06/11 04:47:16;;;;;;;1.05;1.00;;;22.60;75.10;;;;;;6208996;23;20167;-82
2023/06/11 04:49:44;;;;;;;2.30;0.77;;;22.60;74.80;;;;;;6211742;23;20167;-82
2023/06/11 04:52:15;;;;;;;2.08;1.33;;;22.70;74.70;;;;;;6209779;23;20168;-82
2023/06/11 04:54:44;;;;;;;1.02;0.80;;;22.80;74.50;;;;;;6211343;23;20193;-81
2023/06/11 04:57:14;;;;;;;1.50;1.00;;;22.90;74.40;;;;;;6207691;23;20931;-82
2023/06/11 04:59:43;;;;;;;1.38;0.95;;;22.90;74.20;;;;;;6209971;23;20182;-82
2023/06/11 05:02:11;;;;;;;2.92;0.75;;;23.00;73.70;;;;;;6208219;23;20185;-82
2023/06/11 05:04:40;;;;;;;2.10;1.13;;;23.10;73.30;;;;;;6211446;23;20213;-82
2023/06/11 05:07:08;;;;;;;0.40;0.40;;;23.20;72.60;;;;;;6210587;23;20487;-83
2023/06/11 05:09:39;;;;;;;0.65;0.60;;;23.20;72.20;;;;;;6211162;23;20167;-82
2023/06/11 05:12:11;;;;;;;2.25;0.77;;;23.30;72.10;;;;;;6209051;23;20170;-82
2023/06/11 05:14:39;;;;;;;2.72;1.50;;;23.50;72.00;;;;;;6211882;23;20195;-82
2023/06/11 05:17:08;;;;;;;0.60;0.60;;;23.50;71.30;;;;;;6211891;23;20624;-83
2023/06/11 05:19:36;;;;;;;4.32;0.77;;;23.60;71.50;;;;;;6212091;23;20625;-82
2023/06/11 05:22:05;;;;;;;3.65;0.93;;;23.60;70.80;;;;;;6211494;23;20175;-82
2023/06/11 05:24:33;;;;;;;1.23;0.77;;;23.70;70.70;;;;;;6212745;23;20474;-83
2023/06/11 05:27:04;;;;;;;3.38;1.85;;;23.80;70.50;;;;;;6212450;23;20167;-82
2023/06/11 05:29:32;;;;;;;1.30;1.00;;;23.90;70.30;;;;;;6211892;23;20226;-81
2023/06/11 05:32:00;;;;;;;2.25;1.23;;;23.90;70.10;;;;;;6210895;23;20167;-82
2023/06/11 05:34:30;;;;;;;3.63;1.00;;;24.00;69.90;;;;;;6210076;23;20297;-82
2023/06/11 05:36:58;;;;;;;0.70;0.70;;;24.10;69.70;;;;;;6209884;23;20625;-81
2023/06/11 05:39:27;;;;;;;2.38;1.08;;;24.20;69.70;;;;;;6211535;23;20171;-82
2023/06/11 05:41:55;;;;;;;1.35;0.73;;;24.20;68.80;;;;;;6213346;23;20178;-81
2023/06/11 05:44:25;;;;;;;1.08;0.75;;;24.30;68.80;;;;;;6210900;23;20171;-82
2023/06/11 05:46:53;;;;;;;1.17;0.98;;;24.30;67.90;;;;;;6213929;23;20688;-82
2023/06/11 05:49:22;;;;;;;1.33;0.93;;;24.30;67.80;;;;;;6212448;23;20559;-83
2023/06/11 05:51:50;;;;;;;0.43;0.43;;;24.40;67.60;;;;;;6211603;23;20621;-81
2023/06/11 05:54:19;;;;;;;3.03;1.33;;;24.50;67.90;;;;;;6210392;23;20461;-80
2023/06/11 05:56:47;;;;;;;2.33;0.88;;;24.50;67.80;;;;;;6212181;23;20171;-81
2023/06/11 05:59:16;;;;;;;1.33;0.95;;;24.60;68.20;;;;;;6210327;23;20172;-80
2023/06/11 06:01:47;;;;;;;1.25;1.10;;;24.70;67.90;;;;;;6212176;23;20163;-79
2023/06/11 06:04:16;;;;;;;2.58;1.25;;;24.80;67.60;;;;;;6211372;23;20253;-81
2023/06/11 06:06:44;;;;;;;2.42;1.05;;;24.80;67.20;;;;;;6212787;23;20167;-81
2023/06/11 06:09:13;;;;;;;2.80;1.23;;;24.90;66.70;;;;;;6212841;23;20191;-81
2023/06/11 06:11:41;;;;;;;3.22;1.02;;;25.00;66.60;;;;;;6212241;23;20172;-81
2023/06/11 06:14:10;;;;;;;5.57;1.63;;;25.00;66.30;;;;;;6211354;23;20163;-80
2023/06/11 06:16:38;;;;;;;1.52;1.10;;;25.10;66.30;;;;;;6211267;23;20167;-80
2023/06/11 06:19:09;;;;;;;0.65;0.65;;;25.20;66.00;;;;;;6210537;23;20175;-83
2023/06/11 06:21:37;;;;;;;1.42;1.33;;;25.20;65.80;;;;;;6212779;23;20254;-82
2023/06/11 06:24:06;;;;;;;0.77;0.68;;;25.30;65.80;;;;;;6211409;23;20159;-81
2023/06/11 06:26:35;;;;;;;1.10;0.57;;;25.40;66.10;;;;;;6210849;23;20179;-81
2023/06/11 06:29:03;;;;;;;0.43;0.43;;;25.40;66.10;;;;;;6213339;23;20275;-81
2023/06/11 06:31:32;;;;;;;0.77;0.60;;;25.50;66.40;;;;;;6213658;23;20178;-81
2023/06/11 06:34:01;;;;;;;0.50;0.50;;;25.60;66.00;;;;;;6212762;23;20174;-81
2023/06/11 06:36:31;;;;;;;2.15;0.82;;;25.60;66.50;;;;;;6212793;23;20203;-80
2023/06/11 06:39:00;;;;;;;0.65;0.65;;;25.60;64.70;;;;;;6213188;23;20171;-82
2023/06/11 06:41:28;;;;;;;0.63;0.60;;;25.70;65.10;;;;;;6212527;23;20262;-80
2023/06/11 06:43:56;;;;;;;1.00;0.73;;;25.70;65.00;;;;;;6213081;23;20173;-80
2023/06/11 06:46:27;;;;;;;1.48;0.80;;;25.80;65.30;;;;;;6212927;23;20632;-80
2023/06/11 06:48:55;;;;;;;0.80;0.77;;;25.90;65.10;;;;;;6209191;23;20175;-79
2023/06/11 06:51:24;;;;;;;3.60;1.20;;;25.90;65.20;;;;;;6211877;23;20175;-80
2023/06/11 06:53:54;;;;;;;2.60;1.38;;;25.90;64.40;;;;;;6210798;23;20222;-80
2023/06/11 06:56:22;;;;;;;5.20;2.60;;;26.00;64.30;;;;;;6211956;23;20205;-81
2023/06/11 06:58:51;;;;;;;1.17;0.93;;;26.00;64.20;;;;;;6210632;23;20246;-80
2023/06/11 07:01:19;;;;;;;1.15;0.95;;;26.10;63.90;;;;;;6209209;23;20246;-82
2023/06/11 07:03:48;;;;;;;1.73;1.38;;;26.20;63.90;;;;;;6208598;23;20171;-79
2023/06/11 07:06:16;;;;;;;0.57;0.47;;;26.20;63.10;;;;;;6210415;23;20171;-78
2023/06/11 07:08:44;;;;;;;1.40;0.60;;;26.20;63.50;;;;;;6212002;23;20167;-81
2023/06/11 07:11:15;;;;;;;2.30;1.10;;;26.20;63.80;;;;;;6210285;23;20171;-80
2023/06/11 07:13:44;;;;;;;0.85;0.70;;;26.30;64.00;;;;;;6209867;23;20222;-78
2023/06/11 07:16:12;;;;;;;1.17;0.70;;;26.30;64.00;;;;;;6209623;23;20207;-81
2023/06/11 07:18:40;;;;;;;0.75;0.50;;;26.40;63.60;;;;;;6210631;23;20557;-81
2023/06/11 07:21:09;;;;;;;1.08;0.98;;;26.50;63.50;;;;;;6210878;23;20175;-81
2023/06/11 07:23:38;;;;;;;1.60;1.00;;;26.50;63.60;;;;;;6210552;23;20214;-81
2023/06/11 07:26:06;;;;;;;0.63;0.63;;;26.50;63.40;;;;;;6210523;23;20652;-80
2023/06/11 07:28:36;;;;;;;0.88;0.60;;;26.50;63.30;;;;;;6212978;23;20227;-79
2023/06/11 07:31:04;;;;;;;1.50;0.90;;;26.60;63.70;;;;;;6208651;23;20640;-82
2023/06/11 07:33:33;;;;;;;3.60;0.90;;;26.60;63.80;;;;;;6210847;23;20179;-82
2023/06/11 07:36:01;;;;;;;1.98;1.52;;;26.60;63.90;;;;;;6211089;23;20195;-84
2023/06/11 07:38:30;;;;;;;0.43;0.40;;;26.70;64.10;;;;;;6212161;23;20174;-82
2023/06/11 07:41:01;;;;;;;1.08;0.50;;;26.70;64.10;;;;;;6212582;23;20190;-82
2023/06/11 07:43:29;;;;;;;1.65;0.50;;;26.80;64.10;;;;;;6211342;23;20166;-81
2023/06/11 07:45:59;;;;;;;0.95;0.68;;;26.80;63.70;;;;;;6210344;23;20177;-82
2023/06/11 07:48:28;;;;;;;1.80;0.85;;;26.80;63.40;;;;;;6213187;23;20174;-83
2023/06/11 07:50:56;;;;;;;0.98;0.68;;;26.90;63.70;;;;;;6211011;23;20167;-82
2023/06/11 07:53:25;;;;;;;11.02;0.80;;;26.90;63.50;;;;;;6209321;23;20254;-79
2023/06/11 07:55:56;;;;;;;0.60;0.60;;;26.90;63.80;;;;;;6210540;23;20191;-80
2023/06/11 07:58:25;;;;;;;1.08;0.80;;;27.00;63.90;;;;;;6212513;23;20683;-81
2023/06/11 08:00:54;;;;;;;0.98;0.52;;;27.10;64.10;;;;;;6209686;23;20167;-80
2023/06/11 08:03:24;;;;;;;0.70;0.50;;;27.10;64.10;;;;;;6209894;23;20406;-81
2023/06/11 08:05:52;;;;;;;1.25;0.77;;;27.20;64.00;;;;;;6212290;23;20218;-80
2023/06/11 08:08:21;;;;;;;0.60;0.50;;;27.30;63.90;;;;;;6211489;23;20501;-81
2023/06/11 08:10:50;;;;;;;1.42;0.98;;;27.40;64.30;;;;;;6211632;23;20167;-80
2023/06/11 08:13:21;;;;;;;1.08;0.93;;;27.40;63.20;;;;;;6210616;23;20174;-82
2023/06/11 08:15:50;;;;;;;1.13;0.77;;;27.40;62.40;;;;;;6209279;23;20194;-78
2023/06/11 08:18:18;;;;;;;0.80;0.80;;;27.50;62.80;;;;;;6211058;23;20171;-79
2023/06/11 08:20:49;;;;;;;0.88;0.50;;;27.60;63.00;;;;;;6209805;23;20207;-78
2023/06/11 08:23:17;;;;;;;1.08;0.88;;;27.60;62.90;;;;;;6212805;23;20171;-80
2023/06/11 08:25:45;;;;;;;1.52;0.52;;;27.60;62.40;;;;;;6213195;23;20171;-78
2023/06/11 08:28:14;;;;;;;1.77;0.73;;;27.60;61.80;;;;;;6210127;23;20210;-82
2023/06/11 08:30:42;;;;;;;5.97;0.80;;;27.70;61.60;;;;;;6207808;23;20155;-79
2023/06/11 08:33:10;;;;;;;1.75;0.82;;;27.70;61.30;;;;;;6209438;23;20510;-80
2023/06/11 08:35:39;;;;;;;1.60;1.17;;;27.80;61.40;;;;;;6208289;23;20191;-79
2023/06/11 08:38:08;;;;;;;0.38;0.38;;;27.80;61.60;;;;;;6208622;23;20171;-80
2023/06/11 08:40:41;;;;;;;1.13;0.95;;;27.80;61.90;;;;;;6210862;23;20167;-81
2023/06/11 08:43:10;;;;;;;0.50;0.50;;;27.90;61.60;;;;;;6210894;23;20163;-80
2023/06/11 08:45:38;;;;;;;0.85;0.85;;;28.00;61.70;;;;;;6212687;23;20699;-80
2023/06/11 08:48:11;;;;;;;7.15;1.85;;;27.90;61.10;;;;;;6210603;23;20643;-80
2023/06/11 08:50:40;;;;;;;6.57;1.55;;;28.00;60.90;;;;;;6212900;23;20213;-81
2023/06/11 08:53:12;;;;;;;2.22;1.27;;;28.00;60.70;;;;;;6211466;23;20171;-79
2023/06/11 08:55:41;;;;;;;1.27;0.80;;;28.10;60.70;;;;;;6214503;23;20183;-80
2023/06/11 08:58:25;;;;;;;7.25;0.70;;;28.10;60.80;;;;;;6211382;23;20683;-81
2023/06/11 09:00:58;;;;;;;0.90;0.60;;;28.10;61.10;;;;;;6213742;23;20538;-80
2023/06/11 09:04:12;;;;;;;3.90;1.10;;;28.20;60.30;;;;;;6203932;23;20233;-81
2023/06/11 09:07:07;;;;;;;;;;;;;;;;;;;;;
2023/06/11 09:09:41;;;;;;;1.08;0.75;;;28.40;60.10;;;;;;6212764;23;20179;-79
2023/06/11 09:12:18;;;;;;;4.03;0.80;;;28.40;59.60;;;;;;6213632;23;20183;-82
2023/06/11 09:14:53;;;;;;;1.40;1.13;;;28.50;59.70;;;;;;6214088;23;20192;-82
2023/06/11 09:17:21;;;;;;;0.82;0.82;;;28.60;59.40;;;;;;6213415;23;20190;-80
2023/06/11 09:19:56;;;;;;;1.08;0.95;;;28.70;59.30;;;;;;6212297;23;20159;-80
2023/06/11 09:22:27;;;;;;;1.73;0.80;;;28.80;58.80;;;;;;6214088;23;20182;-80
2023/06/11 09:24:57;;;;;;;2.38;0.60;;;28.90;58.90;;;;;;6213985;23;20162;-80
2023/06/11 09:27:25;;;;;;;0.50;0.50;;;28.90;57.70;;;;;;6212022;23;20177;-80
2023/06/11 09:29:53;;;;;;;1.42;0.75;;;29.00;57.80;;;;;;6212730;23;20273;-80
2023/06/11 09:32:21;;;;;;;1.67;0.55;;;29.10;57.80;;;;;;6211443;23;20171;-79
2023/06/11 09:35:00;;;;;;;0.60;0.60;;;29.10;57.80;;;;;;6212618;23;20159;-80
2023/06/11 09:37:29;;;;;;;0.50;0.50;;;29.10;57.20;;;;;;6211533;23;20191;-79
2023/06/11 09:39:58;;;;;;;0.60;0.52;;;29.10;56.30;;;;;;6213053;23;20171;-80
2023/06/11 09:42:27;;;;;;;1.60;0.65;;;29.10;56.70;;;;;;6211241;23;20195;-80
2023/06/11 09:44:59;;;;;;;5.10;1.42;;;29.20;56.30;;;;;;6213690;23;20222;-80
2023/06/11 09:47:29;;;;;;;21.42;1.30;;;29.30;56.60;;;;;;6209251;23;20534;-79
2023/06/11 09:49:59;;;;;;;1.15;0.68;;;29.40;56.50;;;;;;6212047;23;20244;-78
2023/06/11 09:52:28;;;;;;;0.50;0.40;;;29.50;56.70;;;;;;6211373;23;20685;-79
2023/06/11 09:54:58;;;;;;;1.48;0.68;;;29.60;56.70;;;;;;6212328;23;20168;-80
2023/06/11 09:57:29;;;;;;;0.38;0.38;;;29.50;57.00;;;;;;6213315;23;20197;-78
2023/06/11 09:59:57;;;;;;;0.70;0.68;;;29.50;56.20;;;;;;6213239;23;20151;-79
2023/06/11 10:02:26;;;;;;;0.57;0.57;;;29.40;56.10;;;;;;6211060;23;20167;-79
2023/06/11 10:04:55;;;;;;;1.23;1.13;;;29.50;56.50;;;;;;6211575;23;20249;-81
2023/06/11 10:07:25;;;;;;;1.70;0.77;;;29.50;56.00;;;;;;6211186;23;20213;-80
2023/06/11 10:09:55;;;;;;;3.25;1.13;;;29.50;56.20;;;;;;6213269;23;20171;-81
2023/06/11 10:12:25;;;;;;;24.00;2.25;;;29.60;56.20;;;;;;6212209;23;20159;-81
2023/06/11 10:14:54;;;;;;;3.92;1.40;;;29.60;56.30;;;;;;6209832;23;20175;-82
2023/06/11 10:17:23;;;;;;;1.85;1.50;;;29.70;55.70;;;;;;6210953;23;20781;-81
2023/06/11 10:19:52;;;;;;;2.78;1.00;;;29.80;55.90;;;;;;6214393;23;20167;-81
2023/06/11 10:22:33;;;;;;;1.00;0.77;;;29.80;55.50;;;;;;6211352;23;20189;-80
2023/06/11 10:25:02;;;;;;;1.27;0.82;;;29.90;55.20;;;;;;6213316;23;20178;-81
2023/06/11 10:27:43;;;;;;;7.88;2.15;;;30.00;55.60;;;;;;6211029;23;20682;-80
2023/06/11 10:30:23;;;;;;;4.40;1.02;;;30.10;55.30;;;;;;6211971;23;20519;-81
2023/06/11 10:32:53;;;;;;;0.55;0.55;;;30.10;55.20;;;;;;6212476;23;20194;-81
2023/06/11 10:35:24;;;;;;;1.80;1.52;;;30.00;55.00;;;;;;6214184;23;20160;-81
2023/06/11 10:38:03;;;;;;;1.00;0.77;;;30.10;55.40;;;;;;6210313;23;20210;-80
2023/06/11 10:40:35;;;;;;;1.23;0.77;;;30.20;55.30;;;;;;6211896;23;20189;-81
2023/06/11 10:43:15;;;;;;;0.60;0.60;;;30.30;55.10;;;;;;6212160;23;20206;-81
2023/06/11 10:45:43;;;;;;;1.17;0.75;;;30.40;54.70;;;;;;6213837;23;20159;-80
2023/06/11 10:48:27;;;;;;;1.45;0.82;;;30.50;55.00;;;;;;6210189;23;20159;-81
2023/06/11 10:51:00;;;;;;;1.08;0.63;;;30.50;55.00;;;;;;6212613;23;20167;-80
2023/06/11 10:53:37;;;;;;;3.05;1.10;;;30.60;54.70;;;;;;6213815;23;20171;-81
2023/06/11 10:56:06;;;;;;;3.08;0.98;;;30.60;54.40;;;;;;6210170;23;20190;-81
2023/06/11 10:58:36;;;;;;;1.95;0.70;;;30.60;54.40;;;;;;6212003;23;20680;-80
2023/06/11 11:01:08;;;;;;;1.00;0.68;;;30.70;54.80;;;;;;6210901;23;20219;-80
2023/06/11 11:03:39;;;;;;;0.43;0.40;;;30.80;54.20;;;;;;6209453;23;20247;-79
2023/06/11 11:06:08;;;;;;;0.93;0.52;;;30.80;53.40;;;;;;6211943;23;20163;-81
2023/06/11 11:08:37;;;;;;;1.60;0.70;;;30.80;52.80;;;;;;6208855;23;20178;-80
2023/06/11 11:11:06;;;;;;;1.48;0.90;;;31.00;53.20;;;;;;6211370;23;20163;-80
2023/06/11 11:13:36;;;;;;;0.80;0.80;;;31.00;53.10;;;;;;6208059;23;20175;-79
2023/06/11 11:16:05;;;;;;;1.15;0.90;;;31.00;52.60;;;;;;6210942;23;20179;-79
2023/06/11 11:18:34;;;;;;;2.25;1.13;;;31.00;52.20;;;;;;6206565;23;20289;-80
2023/06/11 11:21:03;;;;;;;1.05;0.52;;;31.10;52.60;;;;;;6210128;23;20175;-79
2023/06/11 11:23:32;;;;;;;0.57;0.55;;;31.20;52.80;;;;;;6208389;23;20242;-79
2023/06/11 11:26:01;;;;;;;0.93;0.77;;;31.30;53.10;;;;;;6210460;23;20190;-80
2023/06/11 11:28:31;;;;;;;1.05;0.77;;;31.30;52.70;;;;;;6210043;23;20256;-79
2023/06/11 11:31:04;;;;;;;0.80;0.70;;;31.30;52.10;;;;;;6211765;23;20239;-79
2023/06/11 11:33:35;;;;;;;0.50;0.50;;;31.40;52.40;;;;;;6212037;23;20182;-80
2023/06/11 11:36:05;;;;;;;0.93;0.55;;;31.40;52.60;;;;;;6210874;23;20246;-80
2023/06/11 11:38:37;;;;;;;0.35;0.35;;;31.40;52.30;;;;;;6210047;23;20534;-79
2023/06/11 11:41:09;;;;;;;0.80;0.65;;;31.40;52.50;;;;;;6209700;23;20175;-79
2023/06/11 11:43:38;;;;;;;6.03;1.00;;;31.40;52.40;;;;;;6212714;23;20164;-80
2023/06/11 11:46:18;;;;;;;0.88;0.68;;;31.50;52.10;;;;;;6211570;23;20171;-79
2023/06/11 11:48:47;;;;;;;0.45;0.45;;;31.60;52.20;;;;;;6212441;23;20162;-80
2023/06/11 11:51:17;;;;;;;2.28;1.63;;;31.60;52.30;;;;;;6209003;23;20167;-80
2023/06/11 11:53:45;;;;;;;1.67;0.80;;;31.70;52.00;;;;;;6212184;23;20187;-80
2023/06/11 11:56:14;;;;;;;1.25;1.15;;;31.70;51.90;;;;;;6209313;23;20175;-79
2023/06/11 11:58:44;;;;;;;14.05;1.17;;;31.80;52.30;;;;;;6206595;23;20202;-79
2023/06/11 12:01:21;;;;;;;4.55;1.05;;;31.90;51.90;;;;;;6208520;23;20619;-81
2023/06/11 12:03:58;;;;;;;1.08;0.65;;;32.10;51.70;;;;;;6210967;23;20154;-79
2023/06/11 12:06:27;;;;;;;0.93;0.63;;;32.10;52.00;;;;;;6211991;23;20666;-80
2023/06/11 12:08:55;;;;;;;1.13;0.60;;;32.00;51.40;;;;;;6211300;23;20167;-82
2023/06/11 12:11:23;;;;;;;0.93;0.80;;;31.90;51.00;;;;;;6210461;23;20171;-80
2023/06/11 12:13:52;;;;;;;0.85;0.60;;;31.90;51.10;;;;;;6211054;23;20210;-79
2023/06/11 12:16:24;;;;;;;0.35;0.35;;;31.80;51.30;;;;;;6206838;23;20171;-79
2023/06/11 12:18:53;;;;;;;0.50;0.50;;;31.70;51.60;;;;;;6210377;23;20195;-80
2023/06/11 12:21:34;;;;;;;1.98;0.93;;;31.60;51.00;;;;;;6210623;23;20190;-80
2023/06/11 12:24:03;;;;;;;2.78;1.35;;;31.30;50.40;;;;;;6212214;23;20175;-81
2023/06/11 12:26:33;;;;;;;0.98;0.85;;;31.10;52.60;;;;;;6208590;23;20171;-83
2023/06/11 12:29:01;;;;;;;8.57;0.85;;;30.80;53.30;;;;;;6209465;23;20202;-80
2023/06/11 12:31:31;;;;;;;1.08;0.77;;;30.60;54.20;;;;;;6210517;23;20194;-81
2023/06/11 12:34:00;;;;;;;0.50;0.50;;;30.20;54.90;;;;;;6212305;23;20171;-81
2023/06/11 12:36:28;;;;;;;2.42;1.05;;;29.90;55.40;;;;;;6210550;23;20182;-82
2023/06/11 12:38:56;;;;;;;0.98;0.68;;;29.60;56.10;;;;;;6212492;23;20278;-81
2023/06/11 12:41:25;;;;;;;1.00;0.57;;;29.40;56.50;;;;;;6210500;23;20167;-81
2023/06/11 12:43:54;;;;;;;2.88;0.90;;;29.20;56.60;;;;;;6211774;23;20170;-80
2023/06/11 12:46:22;;;;;;;16.85;0.93;;;28.90;57.30;;;;;;6209576;23;20171;-79
2023/06/11 12:48:52;;;;;;;2.78;1.00;;;28.70;57.80;;;;;;6210419;23;20198;-81
2023/06/11 12:51:21;;;;;;;1.73;1.13;;;28.60;58.20;;;;;;6209689;23;20632;-81
2023/06/11 12:53:51;;;;;;;0.82;0.68;;;28.40;58.40;;;;;;6209841;23;20266;-80
2023/06/11 12:56:22;;;;;;;0.88;0.80;;;28.20;58.40;;;;;;6210005;23;20209;-80
2023/06/11 12:58:51;;;;;;;1.08;0.98;;;28.10;58.90;;;;;;6208017;23;20213;-79
2023/06/11 13:01:20;;;;;;;1.08;0.95;;;27.90;59.30;;;;;;6207469;23;20282;-79
2023/06/11 13:03:48;;;;;;;2.15;1.10;;;27.80;59.70;;;;;;6209692;23;20171;-78